US-0929 weather

CLOSED Sisk Restricted Landing Area
Dunlap, Illinois, United States

Public forecast

Using degrees Fahrenheit for public forecast. Weather courtesy of forecast.io.

Closest aviation weather report (METAR) to Sisk Restricted Landing Area

Closest report is General Wayne A. Downing Peoria International Airport, 11.4 nm (21.0 km) S. Retrieved 2020/07/08 13:54 UTC (43 minutes ago):

KPIA 081354Z 18004KT 10SM CLR 28/21 A2997 RMK AO2 SLP140 T02780211

Closest aviation forecast (TAF) to Sisk Restricted Landing Area

Closest forecast is General Wayne A. Downing Peoria International Airport, 11.4 nm (21.0 km) S. Retrieved 2020/07/08 12:22 UTC (2 hours ago):

TAF KPIA 081120Z 0812/0912 VRB03KT P6SM SKC FM081600 17004KT P6SM SCT040 FM082100 20006KT P6SM VCTS BKN040CB FM090000 VRB03KT P6SM SCT250